createdAt,value
2024-04-18T00:00:10.356Z,3.70
2024-04-18T00:02:40.101Z,4.40
2024-04-18T00:05:06.980Z,4.15
2024-04-18T00:07:33.668Z,4.57
2024-04-18T00:10:16.342Z,4.85
2024-04-18T00:12:43.279Z,4.83
2024-04-18T00:15:25.258Z,4.57
2024-04-18T00:17:55.947Z,4.30
2024-04-18T00:20:22.749Z,5.40
2024-04-18T00:22:49.562Z,6.15
2024-04-18T00:25:18.084Z,4.57
2024-04-18T00:27:54.120Z,4.78
2024-04-18T00:30:43.204Z,4.85
2024-04-18T00:33:10.452Z,4.03
2024-04-18T00:35:37.670Z,3.97
2024-04-18T00:38:14.457Z,3.50
2024-04-18T00:40:41.965Z,4.75
2024-04-18T00:43:21.639Z,3.95
2024-04-18T00:45:51.834Z,3.80
2024-04-18T00:48:26.333Z,5.35
2024-04-18T00:50:56.798Z,3.80
2024-04-18T00:53:25.706Z,4.03
2024-04-18T00:55:56.095Z,4.10
2024-04-18T00:58:42.097Z,4.40
2024-04-18T01:01:21.478Z,3.63
2024-04-18T01:03:56.412Z,3.53
2024-04-18T01:06:40.424Z,4.65
2024-04-18T01:09:17.402Z,4.13
2024-04-18T01:12:03.383Z,4.53
2024-04-18T01:14:30.859Z,4.78
2024-04-18T01:17:04.478Z,5.40
2024-04-18T01:19:31.791Z,5.38
2024-04-18T01:22:02.296Z,6.28
2024-04-18T01:24:32.097Z,5.90
2024-04-18T01:26:58.852Z,6.13
2024-04-18T01:29:42.001Z,6.03
2024-04-18T01:32:30.530Z,6.32
2024-04-18T01:34:58.255Z,6.53
2024-04-18T01:37:44.886Z,6.82
2024-04-18T01:40:13.624Z,8.25
2024-04-18T01:42:41.012Z,8.43
2024-04-18T01:45:26.848Z,7.10
2024-04-18T01:48:12.232Z,7.45
2024-04-18T01:50:57.592Z,8.27
2024-04-18T01:53:33.560Z,8.35
2024-04-18T01:56:00.235Z,7.67
2024-04-18T01:58:45.945Z,8.00
2024-04-18T02:01:12.675Z,8.73
2024-04-18T02:03:39.567Z,8.73
2024-04-18T02:06:15.131Z,8.98
2024-04-18T02:08:47.940Z,9.73
2024-04-18T02:11:17.819Z,8.43
2024-04-18T02:14:04.571Z,9.80
2024-04-18T02:16:31.964Z,9.45
2024-04-18T02:19:17.080Z,8.75
2024-04-18T02:22:19.081Z,7.90
2024-04-18T02:25:07.572Z,7.82
2024-04-18T02:27:34.325Z,10.13
2024-04-18T02:30:21.326Z,7.85
2024-04-18T02:32:49.079Z,9.10
2024-04-18T02:35:15.796Z,8.73
2024-04-18T02:37:58.761Z,7.35
2024-04-18T02:40:25.824Z,7.78
2024-04-18T02:43:01.092Z,8.15
2024-04-18T02:45:33.568Z,8.48
2024-04-18T02:48:18.962Z,8.30
2024-04-18T02:50:45.773Z,8.05
2024-04-18T02:53:12.460Z,7.95
2024-04-18T02:55:59.081Z,9.50
2024-04-18T02:58:31.654Z,8.85
2024-04-18T03:01:16.070Z,8.47
2024-04-18T03:03:42.787Z,8.50
2024-04-18T03:06:09.537Z,9.05
2024-04-18T03:08:40.010Z,7.97
2024-04-18T03:11:16.420Z,7.90
2024-04-18T03:14:03.630Z,6.90
2024-04-18T03:16:30.521Z,6.65
2024-04-18T03:19:17.536Z,11.18
2024-04-18T03:21:53.983Z,7.25
2024-04-18T03:24:22.527Z,6.68
2024-04-18T03:26:50.266Z,7.03
2024-04-18T03:29:16.956Z,6.78
2024-04-18T03:31:58.728Z,7.43
2024-04-18T03:34:43.755Z,6.57
2024-04-18T03:37:10.426Z,7.38
2024-04-18T03:39:37.170Z,6.47
2024-04-18T03:42:03.980Z,7.07
2024-04-18T03:44:49.299Z,7.53
2024-04-18T03:47:16.114Z,12.50
2024-04-18T03:50:02.808Z,21.20
2024-04-18T03:52:40.388Z,14.30
2024-04-18T03:55:26.087Z,24.63
2024-04-18T03:57:52.871Z,13.18
2024-04-18T04:00:42.064Z,7.32
2024-04-18T04:03:09.670Z,8.23
2024-04-18T04:05:36.380Z,9.93
2024-04-18T04:08:03.722Z,12.57
2024-04-18T04:10:40.380Z,8.10
2024-04-18T04:13:07.050Z,7.70
2024-04-18T04:15:49.454Z,13.02
2024-04-18T04:18:35.262Z,9.00
2024-04-18T04:21:37.427Z,10.05
2024-04-18T04:24:04.438Z,7.95
2024-04-18T04:26:50.074Z,12.27
2024-04-18T04:29:16.745Z,10.95
2024-04-18T04:31:43.423Z,8.50
2024-04-18T04:34:11.365Z,8.77
2024-04-18T04:36:38.046Z,10.90
2024-04-18T04:39:04.754Z,84.53
2024-04-18T04:41:39.395Z,43.67
2024-04-18T04:44:06.210Z,46.10
2024-04-18T04:46:47.980Z,42.38
2024-04-18T04:49:19.089Z,40.78
2024-04-18T04:52:04.899Z,23.08
2024-04-18T04:54:45.099Z,35.95
2024-04-18T04:57:12.572Z,10.73
2024-04-18T04:59:39.425Z,12.93
2024-04-18T05:02:06.733Z,11.35
2024-04-18T05:04:50.199Z,10.82
2024-04-18T05:07:32.817Z,11.32
2024-04-18T05:10:18.474Z,8.10
2024-04-18T05:12:45.400Z,20.60
2024-04-18T05:15:32.215Z,19.40
2024-04-18T05:17:58.935Z,25.58
2024-04-18T05:20:25.712Z,15.55
2024-04-18T05:22:52.356Z,13.60
2024-04-18T05:25:19.039Z,11.43
2024-04-18T05:27:56.340Z,10.30
2024-04-18T05:30:54.017Z,8.95
2024-04-18T05:33:20.823Z,6.55
2024-04-18T05:35:48.252Z,8.37
2024-04-18T05:38:14.933Z,7.70
2024-04-18T05:40:41.679Z,7.20
2024-04-18T05:43:08.406Z,6.65
2024-04-18T05:45:51.036Z,6.15
2024-04-18T05:48:19.504Z,5.80
2024-04-18T05:50:46.296Z,6.55
2024-04-18T05:53:21.975Z,6.22
2024-04-18T05:55:54.604Z,7.20
2024-04-18T05:58:21.645Z,7.43
2024-04-18T06:00:54.424Z,6.03
2024-04-18T06:03:21.316Z,9.02
2024-04-18T06:05:48.009Z,7.53
2024-04-18T06:08:15.039Z,6.47
2024-04-18T06:10:44.676Z,5.85
2024-04-18T06:13:21.534Z,5.33
2024-04-18T06:15:49.175Z,5.85
2024-04-18T06:18:16.405Z,5.70
2024-04-18T06:20:52.788Z,6.38
2024-04-18T06:23:19.743Z,7.28
2024-04-18T06:26:06.413Z,6.70
2024-04-18T06:28:33.379Z,7.28
2024-04-18T06:31:00.191Z,7.57
2024-04-18T06:33:30.922Z,8.82
2024-04-18T06:35:59.302Z,8.98
2024-04-18T06:38:26.344Z,9.67
2024-04-18T06:40:53.015Z,11.13
2024-04-18T06:43:22.052Z,12.32
2024-04-18T06:45:50.504Z,11.30
2024-04-18T06:48:17.290Z,13.07
2024-04-18T06:50:44.118Z,12.70
2024-04-18T06:53:10.836Z,13.63
2024-04-18T06:55:37.600Z,27.30
2024-04-18T06:58:04.537Z,41.22
2024-04-18T07:00:31.470Z,23.85
2024-04-18T07:02:58.225Z,23.33
2024-04-18T07:05:43.722Z,23.00
2024-04-18T07:08:22.329Z,46.53
2024-04-18T07:10:49.035Z,32.92
2024-04-18T07:13:29.229Z,76.57
2024-04-18T07:15:57.265Z,29.30
2024-04-18T07:18:43.174Z,33.88
2024-04-18T07:21:09.976Z,21.40
2024-04-18T07:23:37.290Z,18.70
2024-04-18T07:26:04.672Z,14.93
2024-04-18T07:28:31.850Z,16.23
2024-04-18T07:30:58.614Z,17.05
2024-04-18T07:33:25.507Z,15.35
2024-04-18T07:35:59.888Z,13.25
2024-04-18T07:38:29.770Z,16.90
2024-04-18T07:40:56.485Z,15.43
2024-04-18T07:43:23.308Z,15.27
2024-04-18T07:45:50.444Z,14.18
2024-04-18T07:48:17.245Z,14.75
2024-04-18T07:50:45.398Z,15.73
2024-04-18T07:53:12.301Z,14.83
2024-04-18T07:55:42.458Z,17.50
2024-04-18T07:58:09.728Z,164.77
2024-04-18T08:00:38.182Z,69.90
2024-04-18T08:03:06.543Z,107.63
2024-04-18T08:05:36.979Z,96.60
2024-04-18T08:08:08.346Z,48.80
2024-04-18T08:10:52.297Z,40.08
2024-04-18T08:13:29.489Z,19.73
2024-04-18T08:16:02.148Z,22.95
2024-04-18T08:18:28.902Z,126.70
2024-04-18T08:20:57.632Z,26.98
2024-04-18T08:23:24.523Z,23.30
2024-04-18T08:25:51.267Z,59.40
2024-04-18T08:28:18.184Z,43.30
2024-04-18T08:30:45.673Z,17.30
2024-04-18T08:33:12.669Z,14.00
2024-04-18T08:35:39.818Z,12.45
2024-04-18T08:38:09.630Z,11.25
2024-04-18T08:40:37.532Z,10.98
2024-04-18T08:43:04.676Z,11.77
2024-04-18T08:45:41.004Z,12.25
2024-04-18T08:48:08.736Z,11.38
2024-04-18T08:50:36.335Z,10.70
2024-04-18T08:53:05.653Z,10.05
2024-04-18T08:55:36.396Z,9.60
2024-04-18T08:58:06.930Z,11.27
2024-04-18T09:00:34.515Z,18.80
2024-04-18T09:03:02.870Z,40.80
2024-04-18T09:05:29.718Z,33.42
2024-04-18T09:07:56.428Z,177.50
2024-04-18T09:10:24.721Z,82.20
2024-04-18T09:12:55.575Z,35.35
2024-04-18T09:15:23.946Z,27.15
2024-04-18T09:18:01.616Z,13.38
2024-04-18T09:20:28.523Z,65.03
2024-04-18T09:22:55.238Z,12.60
2024-04-18T09:25:22.154Z,12.15
2024-04-18T09:27:52.169Z,14.10
2024-04-18T09:30:18.891Z,57.78
2024-04-18T09:32:46.149Z,12.90
2024-04-18T09:35:12.920Z,12.52
2024-04-18T09:37:44.669Z,9.75
2024-04-18T09:40:14.066Z,9.75
2024-04-18T09:42:49.963Z,9.43
2024-04-18T09:45:20.146Z,9.03
2024-04-18T09:47:48.583Z,8.20
2024-04-18T09:50:16.045Z,7.43
2024-04-18T09:52:45.968Z,6.43
2024-04-18T09:55:14.160Z,7.28
2024-04-18T09:57:42.958Z,6.03
2024-04-18T10:00:11.768Z,7.57
2024-04-18T10:02:39.205Z,5.82
2024-04-18T10:05:06.110Z,6.63
2024-04-18T10:07:33.689Z,8.10
2024-04-18T10:10:01.944Z,70.43
2024-04-18T10:12:35.551Z,52.10
2024-04-18T10:15:02.500Z,156.55
2024-04-18T10:17:32.746Z,52.17
2024-04-18T10:20:06.631Z,54.20
2024-04-18T10:22:45.486Z,115.07
2024-04-18T10:25:21.385Z,58.00
2024-04-18T10:27:48.263Z,17.63
2024-04-18T10:30:17.527Z,77.18
2024-04-18T10:32:46.318Z,32.35
2024-04-18T10:35:15.689Z,45.57
2024-04-18T10:37:51.816Z,14.90
2024-04-18T10:40:18.592Z,14.85
2024-04-18T10:42:45.417Z,50.72
2024-04-18T10:45:12.634Z,10.25
2024-04-18T10:47:41.060Z,5.30
2024-04-18T10:50:09.635Z,5.63
2024-04-18T10:52:36.296Z,5.47
2024-04-18T10:55:03.025Z,5.47
2024-04-18T10:57:29.984Z,6.03
2024-04-18T10:59:56.711Z,5.23
2024-04-18T11:02:23.585Z,6.00
2024-04-18T11:04:50.305Z,5.53
2024-04-18T11:07:19.123Z,5.25
2024-04-18T11:09:46.148Z,5.47
2024-04-18T11:12:13.149Z,6.53
2024-04-18T11:14:39.883Z,5.57
2024-04-18T11:17:08.094Z,5.85
2024-04-18T11:19:34.867Z,5.55
2024-04-18T11:22:02.408Z,5.95
2024-04-18T11:24:30.441Z,6.03
2024-04-18T11:26:57.521Z,6.72
2024-04-18T11:29:30.530Z,4.60
2024-04-18T11:32:07.421Z,4.65
2024-04-18T11:34:34.334Z,3.40
2024-04-18T11:37:04.503Z,4.10
2024-04-18T11:39:31.491Z,4.70
2024-04-18T11:41:58.457Z,4.60
2024-04-18T11:44:25.324Z,3.90
2024-04-18T11:46:54.859Z,5.35
2024-04-18T11:49:21.604Z,5.73
2024-04-18T11:51:48.299Z,4.25
2024-04-18T11:54:14.981Z,4.15
2024-04-18T11:56:41.751Z,4.53
2024-04-18T11:59:31.514Z,7.50
2024-04-18T12:01:58.277Z,56.87
2024-04-18T12:04:25.140Z,98.68
2024-04-18T12:06:52.029Z,120.90
2024-04-18T12:09:28.274Z,140.60
2024-04-18T12:11:59.613Z,92.63
2024-04-18T12:14:47.762Z,116.53
2024-04-18T12:17:29.016Z,85.00
2024-04-18T12:20:14.375Z,110.32
2024-04-18T12:22:41.064Z,9.15
2024-04-18T12:25:18.027Z,17.27
2024-04-18T12:27:44.800Z,20.70
2024-04-18T12:30:30.818Z,22.77
2024-04-18T12:33:16.475Z,6.75
2024-04-18T12:35:43.257Z,5.55
2024-04-18T12:38:10.024Z,4.15
2024-04-18T12:40:43.689Z,5.60
2024-04-18T12:43:10.393Z,6.10
2024-04-18T12:46:00.657Z,3.95
2024-04-18T12:48:52.451Z,4.43
2024-04-18T12:51:19.373Z,4.63
2024-04-18T12:53:46.330Z,3.90
2024-04-18T12:56:13.581Z,5.35
2024-04-18T12:58:42.461Z,6.75
2024-04-18T13:01:10.161Z,5.50
2024-04-18T13:03:43.834Z,6.47
2024-04-18T13:06:29.846Z,6.80
2024-04-18T13:08:58.601Z,6.15
2024-04-18T13:11:51.178Z,6.28
2024-04-18T13:14:17.872Z,5.15
2024-04-18T13:16:44.759Z,6.00
2024-04-18T13:19:12.404Z,6.53
2024-04-18T13:21:39.840Z,5.07
2024-04-18T13:24:11.125Z,5.28
2024-04-18T13:26:53.606Z,6.28
2024-04-18T13:29:21.073Z,6.88
2024-04-18T13:31:48.138Z,8.10
2024-04-18T13:34:21.936Z,9.35
2024-04-18T13:36:49.005Z,6.57
2024-04-18T13:39:16.254Z,6.43
2024-04-18T13:42:03.108Z,8.02
2024-04-18T13:44:49.804Z,19.83
2024-04-18T13:47:22.777Z,8.05
2024-04-18T13:49:49.494Z,25.30
2024-04-18T13:52:16.662Z,27.90
2024-04-18T13:55:03.381Z,36.38
2024-04-18T13:57:33.005Z,104.77
2024-04-18T14:00:18.666Z,40.08
2024-04-18T14:02:48.774Z,26.33
2024-04-18T14:05:20.485Z,22.55
2024-04-18T14:08:03.652Z,9.05
2024-04-18T14:10:30.791Z,7.13
2024-04-18T14:13:16.225Z,6.85
2024-04-18T14:16:09.909Z,7.05
2024-04-18T14:18:54.898Z,6.43
2024-04-18T14:21:33.933Z,5.88
2024-04-18T14:24:01.006Z,5.17
2024-04-18T14:26:27.685Z,5.25
2024-04-18T14:28:54.403Z,5.15
2024-04-18T14:31:21.206Z,5.43
2024-04-18T14:33:48.453Z,4.53
2024-04-18T14:36:15.266Z,7.00
2024-04-18T14:38:42.049Z,8.52
2024-04-18T14:41:12.146Z,7.80
2024-04-18T14:43:39.550Z,8.18
2024-04-18T14:46:06.551Z,6.20
2024-04-18T14:48:47.964Z,5.97
2024-04-18T14:51:23.771Z,5.95
2024-04-18T14:53:51.038Z,6.18
2024-04-18T14:56:37.786Z,5.63
2024-04-18T14:59:04.539Z,5.63
2024-04-18T15:01:31.234Z,6.73
2024-04-18T15:03:58.033Z,5.75
2024-04-18T15:06:25.046Z,6.32
2024-04-18T15:09:08.520Z,6.13
2024-04-18T15:11:56.397Z,7.10
2024-04-18T15:14:36.898Z,87.07
2024-04-18T15:17:09.443Z,16.35
2024-04-18T15:19:37.081Z,12.43
2024-04-18T15:22:22.357Z,11.57
2024-04-18T15:24:49.883Z,13.95
2024-04-18T15:27:16.637Z,14.53
2024-04-18T15:29:43.846Z,12.07
2024-04-18T15:32:24.264Z,11.05
2024-04-18T15:35:11.036Z,9.77
2024-04-18T15:37:57.686Z,12.55
2024-04-18T15:40:31.526Z,23.93
2024-04-18T15:43:06.238Z,14.57
2024-04-18T15:45:38.099Z,9.73
2024-04-18T15:48:23.636Z,7.18
2024-04-18T15:50:53.264Z,6.53
2024-04-18T15:53:30.456Z,7.03
2024-04-18T15:56:07.333Z,6.90
2024-04-18T15:59:06.179Z,7.72
2024-04-18T16:01:48.725Z,7.18
2024-04-18T16:04:36.292Z,6.15
2024-04-18T16:07:03.054Z,8.23
2024-04-18T16:09:48.427Z,10.40
2024-04-18T16:12:21.439Z,9.02
2024-04-18T16:15:01.836Z,12.15
2024-04-18T16:17:28.554Z,14.77
2024-04-18T16:20:11.186Z,13.40
2024-04-18T16:22:38.019Z,9.93
2024-04-18T16:25:24.637Z,8.02
2024-04-18T16:27:51.337Z,12.63
2024-04-18T16:30:18.052Z,43.72
2024-04-18T16:32:45.990Z,21.17
2024-04-18T16:35:12.699Z,30.60
2024-04-18T16:37:41.010Z,29.10
2024-04-18T16:40:14.216Z,43.47
2024-04-18T16:43:00.813Z,17.20
2024-04-18T16:45:48.040Z,12.00
2024-04-18T16:48:14.911Z,10.25
2024-04-18T16:50:41.652Z,9.50
2024-04-18T16:53:08.331Z,8.77
2024-04-18T16:55:44.378Z,9.10
2024-04-18T16:58:17.615Z,6.43
2024-04-18T17:00:58.394Z,7.05
2024-04-18T17:03:26.962Z,7.20
2024-04-18T17:06:04.130Z,10.45
2024-04-18T17:08:31.595Z,10.90
2024-04-18T17:10:58.547Z,8.83
2024-04-18T17:13:43.780Z,7.72
2024-04-18T17:16:11.127Z,7.93
2024-04-18T17:18:45.840Z,9.02
2024-04-18T17:21:12.679Z,7.38
2024-04-18T17:23:39.401Z,13.47
2024-04-18T17:26:06.093Z,12.50
2024-04-18T17:28:32.768Z,100.63
2024-04-18T17:31:02.625Z,162.50
2024-04-18T17:33:30.191Z,49.75
2024-04-18T17:36:00.568Z,32.13
2024-04-18T17:38:46.730Z,87.93
2024-04-18T17:41:29.690Z,40.65
2024-04-18T17:44:15.975Z,17.27
2024-04-18T17:46:56.573Z,12.43
2024-04-18T17:49:23.746Z,37.53
2024-04-18T17:51:53.568Z,22.67
2024-04-18T17:54:20.411Z,60.33
2024-04-18T17:56:47.309Z,31.58
2024-04-18T17:59:15.539Z,19.83
2024-04-18T18:01:43.835Z,22.47
2024-04-18T18:04:14.833Z,19.42
2024-04-18T18:06:41.941Z,16.02
2024-04-18T18:09:09.534Z,9.55
2024-04-18T18:11:36.337Z,10.55
2024-04-18T18:14:03.536Z,10.30
2024-04-18T18:16:49.149Z,9.80
2024-04-18T18:19:16.169Z,9.00
2024-04-18T18:21:56.021Z,12.13
2024-04-18T18:24:22.920Z,20.98
2024-04-18T18:26:49.685Z,27.73
2024-04-18T18:29:18.225Z,28.08
2024-04-18T18:32:03.949Z,29.42
2024-04-18T18:34:31.055Z,27.05
2024-04-18T18:36:57.750Z,18.45
2024-04-18T18:39:24.812Z,13.73
2024-04-18T18:41:51.654Z,17.23
2024-04-18T18:44:19.081Z,10.15
2024-04-18T18:46:45.906Z,13.10
2024-04-18T18:49:15.738Z,9.23
2024-04-18T18:51:44.795Z,12.70
2024-04-18T18:54:12.629Z,11.07
2024-04-18T18:56:41.120Z,10.15
2024-04-18T18:59:27.513Z,9.77
2024-04-18T19:01:54.265Z,8.68
2024-04-18T19:04:22.058Z,9.63
2024-04-18T19:06:48.835Z,10.60
2024-04-18T19:09:15.775Z,8.80
2024-04-18T19:11:42.708Z,7.88
2024-04-18T19:14:09.412Z,8.57
2024-04-18T19:16:56.285Z,7.47
2024-04-18T19:19:25.826Z,9.25
2024-04-18T19:21:53.051Z,9.07
2024-04-18T19:24:19.789Z,8.30
2024-04-18T19:27:01.419Z,7.95
2024-04-18T19:29:39.499Z,8.60
2024-04-18T19:32:12.972Z,8.23
2024-04-18T19:34:39.690Z,7.85
2024-04-18T19:37:06.382Z,8.93
2024-04-18T19:39:33.097Z,7.88
2024-04-18T19:42:00.884Z,7.73
2024-04-18T19:44:27.699Z,7.40
2024-04-18T19:46:54.410Z,7.75
2024-04-18T19:49:21.211Z,8.43
2024-04-18T19:52:01.706Z,8.07
2024-04-18T19:54:30.772Z,7.87
2024-04-18T19:56:57.483Z,8.75
2024-04-18T19:59:24.170Z,7.63
2024-04-18T20:01:50.962Z,7.43
2024-04-18T20:04:17.782Z,7.55
2024-04-18T20:06:44.625Z,11.50
2024-04-18T20:09:11.429Z,7.15
2024-04-18T20:11:38.219Z,9.00
2024-04-18T20:14:04.929Z,8.48
2024-04-18T20:16:31.666Z,7.30
2024-04-18T20:19:13.214Z,9.60
2024-04-18T20:21:40.211Z,8.20
2024-04-18T20:24:06.961Z,8.82
2024-04-18T20:26:36.019Z,7.97
2024-04-18T20:29:13.581Z,7.47
2024-04-18T20:31:40.416Z,8.23
2024-04-18T20:34:07.095Z,7.43
2024-04-18T20:36:33.999Z,7.30
2024-04-18T20:39:00.721Z,6.97
2024-04-18T20:41:27.441Z,7.63
2024-04-18T20:43:54.109Z,6.60
2024-04-18T20:46:28.149Z,7.25
2024-04-18T20:48:55.036Z,9.68
2024-04-18T20:51:22.928Z,6.75
2024-04-18T20:53:50.196Z,8.82
2024-04-18T20:56:16.897Z,8.10
2024-04-18T20:58:43.606Z,7.60
2024-04-18T21:01:10.401Z,7.18
2024-04-18T21:03:37.452Z,8.10
2024-04-18T21:06:04.390Z,7.63
2024-04-18T21:08:31.089Z,6.10
2024-04-18T21:10:57.773Z,5.53
2024-04-18T21:13:24.495Z,6.63
2024-04-18T21:16:00.774Z,6.45
2024-04-18T21:18:28.822Z,6.55
2024-04-18T21:20:56.212Z,6.73
2024-04-18T21:23:22.952Z,6.18
2024-04-18T21:25:49.621Z,5.93
2024-04-18T21:28:16.327Z,7.65
2024-04-18T21:30:43.147Z,7.43
2024-04-18T21:33:10.018Z,7.93
2024-04-18T21:35:36.762Z,7.93
2024-04-18T21:38:04.721Z,6.80
2024-04-18T21:40:31.426Z,6.78
2024-04-18T21:43:03.358Z,6.95
2024-04-18T21:45:31.132Z,6.10
2024-04-18T21:47:57.929Z,5.78
2024-04-18T21:50:24.921Z,6.20
2024-04-18T21:52:51.654Z,5.95
2024-04-18T21:55:18.360Z,8.85
2024-04-18T21:57:45.066Z,7.53
2024-04-18T22:00:12.600Z,7.85
2024-04-18T22:02:57.953Z,6.30
2024-04-18T22:05:24.692Z,7.10
2024-04-18T22:07:51.347Z,8.60
2024-04-18T22:10:18.088Z,8.13
2024-04-18T22:12:44.819Z,8.65
2024-04-18T22:15:11.604Z,7.50
2024-04-18T22:17:38.302Z,8.23
2024-04-18T22:20:05.346Z,7.78
2024-04-18T22:22:32.087Z,7.40
2024-04-18T22:24:58.784Z,7.47
2024-04-18T22:27:25.511Z,8.40
2024-04-18T22:29:52.321Z,9.30
2024-04-18T22:32:19.052Z,8.65
2024-04-18T22:34:46.508Z,8.47
2024-04-18T22:37:43.058Z,8.48
2024-04-18T22:40:09.867Z,8.07
2024-04-18T22:42:36.718Z,8.07
2024-04-18T22:45:03.670Z,8.18
2024-04-18T22:47:30.455Z,9.27
2024-04-18T22:49:57.240Z,8.88
2024-04-18T22:52:23.912Z,10.05
2024-04-18T22:54:51.799Z,10.38
2024-04-18T22:57:19.167Z,13.63
2024-04-18T22:59:47.238Z,14.20
2024-04-18T23:02:14.362Z,10.82
2024-04-18T23:04:41.940Z,12.48
2024-04-18T23:07:11.601Z,8.88
2024-04-18T23:09:38.464Z,9.82
2024-04-18T23:12:05.347Z,10.47
2024-04-18T23:14:32.066Z,11.02
2024-04-18T23:16:58.765Z,11.60
2024-04-18T23:19:25.418Z,8.80
2024-04-18T23:21:52.149Z,9.10
2024-04-18T23:24:37.168Z,8.80
2024-04-18T23:27:04.010Z,7.78
2024-04-18T23:29:31.771Z,8.40
2024-04-18T23:31:59.081Z,8.60
2024-04-18T23:34:26.188Z,7.03
2024-04-18T23:37:02.093Z,6.77
2024-04-18T23:39:29.283Z,7.25
2024-04-18T23:41:56.011Z,6.93
2024-04-18T23:44:22.689Z,9.30
2024-04-18T23:46:49.336Z,9.40
2024-04-18T23:49:16.156Z,8.80
2024-04-18T23:51:42.932Z,10.98
2024-04-18T23:54:09.729Z,10.52
2024-04-18T23:56:37.001Z,11.55
2024-04-18T23:59:03.804Z,12.07
